Terminal Aerodrome Forecast
Issued by NWS

Home | Current Version | Previous Version | Graphics & Text | Print | Product List | Glossary On
Versions: 1 2 3 4 5 6 7 8 9 10 11 12 13 14 15 16 17 18
793
FTUS43 KICT 300520
TAFSLN
TAF
KSLN 300520Z 3006/0106 09012KT P6SM VCSH OVC007
     FM300900 32013KT 5SM BR OVC005
     FM301600 27016KT P6SM BKN040=

USA.gov is the U.S. government's official web portal to all federal, state and local government web resources and services.